Time;durP1;ratioP1;P1;durP2;ratioP2;P2;SDS_P1;SDS_P2;PMS_P1;PMS_P2;Temp;Humidity;BMP_temperature;BMP_pressure;BME280_temperature;BME280_humidity;BME280_pressure;Samples;Min_cycle;Max_cycle;Signal;HPM_P1;HPM_P2
2022/01/31 00:01:34;;;;;;;22.40;5.83;;;6.70;99.90;;;;;;5058550;28;20206;-83
2022/01/31 00:04:03;;;;;;;19.30;4.13;;;6.60;99.90;;;;;;5049521;28;20210;-81
2022/01/31 00:06:30;;;;;;;17.57;4.80;;;6.60;99.90;;;;;;5050532;28;20202;-83
2022/01/31 00:08:56;;;;;;;30.93;6.70;;;6.60;99.90;;;;;;5052070;28;20717;-86
2022/01/31 00:11:23;;;;;;;20.80;4.90;;;6.50;99.90;;;;;;5051983;28;20899;-87
2022/01/31 00:14:02;;;;;;;23.97;5.50;;;6.50;99.90;;;;;;5051858;28;20375;-86
2022/01/31 00:16:32;;;;;;;29.97;5.83;;;6.50;99.90;;;;;;5052147;28;20259;-87
2022/01/31 00:19:00;;;;;;;24.23;6.00;;;6.40;99.90;;;;;;5051680;28;20292;-87
2022/01/31 00:21:29;;;;;;;29.93;6.53;;;6.50;99.90;;;;;;5052213;28;20210;-88
2022/01/31 00:23:56;;;;;;;27.90;6.07;;;6.50;99.90;;;;;;5051465;28;20202;-87
2022/01/31 00:26:23;;;;;;;34.97;6.27;;;6.40;99.90;;;;;;5052367;28;20526;-89
2022/01/31 00:28:50;;;;;;;25.07;4.90;;;6.40;99.90;;;;;;5051970;28;20590;-89
2022/01/31 00:31:16;;;;;;;31.63;7.60;;;6.40;99.90;;;;;;5049727;28;20649;-87
2022/01/31 00:33:43;;;;;;;24.23;5.20;;;6.40;99.90;;;;;;5049224;28;20226;-87
2022/01/31 00:36:10;;;;;;;29.97;7.00;;;6.50;99.90;;;;;;5062843;28;20205;-86
2022/01/31 00:38:39;;;;;;;40.40;6.53;;;6.40;99.90;;;;;;5071017;28;20628;-88
2022/01/31 00:41:06;;;;;;;26.50;5.27;;;6.50;99.90;;;;;;5072203;28;20201;-89
2022/01/31 00:43:35;;;;;;;29.33;6.97;;;6.50;99.90;;;;;;5070379;28;20190;-89
2022/01/31 00:46:02;;;;;;;29.77;6.17;;;6.50;99.90;;;;;;5066372;28;20216;-90
2022/01/31 00:48:34;;;;;;;20.83;6.33;;;6.50;99.90;;;;;;5051377;28;20501;-89
2022/01/31 00:51:01;;;;;;;34.63;6.80;;;6.60;99.90;;;;;;5051343;28;20713;-88
2022/01/31 00:53:29;;;;;;;30.80;6.90;;;6.60;99.90;;;;;;5051971;28;20201;-90
2022/01/31 00:55:57;;;;;;;29.67;5.97;;;6.70;99.90;;;;;;5054367;28;20578;-90
2022/01/31 00:58:24;;;;;;;31.63;6.20;;;6.70;99.90;;;;;;5071348;28;20201;-88
2022/01/31 01:00:51;;;;;;;28.03;7.53;;;6.70;99.90;;;;;;5071630;28;20680;-88
2022/01/31 01:03:18;;;;;;;29.03;7.10;;;6.70;99.90;;;;;;5071575;28;20193;-89
2022/01/31 01:05:44;;;;;;;34.57;7.43;;;6.80;99.90;;;;;;5069001;28;20205;-91
2022/01/31 01:08:11;;;;;;;42.33;9.97;;;6.80;99.90;;;;;;5067314;28;20212;-85
2022/01/31 01:10:38;;;;;;;59.70;13.17;;;6.90;99.90;;;;;;5075758;28;20528;-88
2022/01/31 01:13:06;;;;;;;25.50;8.70;;;6.90;99.90;;;;;;5075841;28;20197;-88
2022/01/31 01:15:33;;;;;;;39.30;10.23;;;7.00;99.90;;;;;;5075414;28;20197;-90
2022/01/31 01:18:00;;;;;;;29.20;8.67;;;7.00;99.90;;;;;;5055489;28;20210;-86
2022/01/31 01:20:28;;;;;;;38.50;8.07;;;7.10;99.90;;;;;;5055211;28;20736;-89
2022/01/31 01:22:55;;;;;;;43.37;10.27;;;7.10;99.90;;;;;;5055479;28;20233;-87
2022/01/31 01:25:21;;;;;;;29.23;8.27;;;7.10;99.90;;;;;;5055271;28;20292;-87
2022/01/31 01:27:52;;;;;;;32.30;9.43;;;7.20;99.90;;;;;;5055360;28;20210;-87
2022/01/31 01:30:20;;;;;;;38.97;8.30;;;7.20;99.90;;;;;;5055168;28;20346;-84
2022/01/31 01:32:59;;;;;;;28.77;7.00;;;7.20;99.90;;;;;;5054975;28;20222;-86
2022/01/31 01:35:31;;;;;;;37.03;8.10;;;7.30;99.90;;;;;;5062909;28;20208;-85
2022/01/31 01:37:59;;;;;;;33.80;7.73;;;7.30;99.90;;;;;;5073882;28;20205;-86
2022/01/31 01:40:26;;;;;;;36.63;10.30;;;7.50;99.90;;;;;;5073513;28;20461;-85
2022/01/31 01:42:53;;;;;;;32.10;8.93;;;7.50;99.90;;;;;;5073850;28;20205;-85
2022/01/31 01:45:21;;;;;;;37.47;8.67;;;7.50;99.90;;;;;;5072753;28;20201;-84
2022/01/31 01:47:48;;;;;;;38.83;8.60;;;7.50;99.90;;;;;;5070789;28;20232;-83
2022/01/31 01:50:16;;;;;;;35.37;8.07;;;7.60;99.90;;;;;;5053767;28;20241;-84
2022/01/31 01:52:43;;;;;;;24.47;6.27;;;7.60;99.90;;;;;;5053326;28;20217;-82
2022/01/31 01:55:10;;;;;;;25.33;6.40;;;7.60;99.90;;;;;;5052831;28;20209;-83
2022/01/31 01:57:37;;;;;;;27.03;6.63;;;7.60;99.90;;;;;;5053438;28;20209;-85
2022/01/31 02:00:08;;;;;;;22.93;6.17;;;7.70;99.90;;;;;;5053421;28;20202;-82
2022/01/31 02:02:36;;;;;;;22.90;6.20;;;7.70;99.90;;;;;;5057177;28;20193;-82
2022/01/31 02:05:03;;;;;;;16.53;5.87;;;7.70;99.90;;;;;;5072527;28;20209;-85
2022/01/31 02:07:30;;;;;;;21.37;5.23;;;7.70;99.90;;;;;;5071981;28;20224;-83
2022/01/31 02:09:57;;;;;;;21.67;5.33;;;7.70;99.90;;;;;;5070589;28;20201;-82
2022/01/31 02:12:27;;;;;;;19.63;5.50;;;7.70;99.90;;;;;;5058613;28;20213;-82
2022/01/31 02:14:54;;;;;;;20.13;5.60;;;7.80;99.90;;;;;;5049626;28;20194;-82
2022/01/31 02:17:20;;;;;;;29.93;7.00;;;7.80;99.90;;;;;;5048167;28;20213;-83
2022/01/31 02:19:49;;;;;;;19.13;4.60;;;7.80;99.90;;;;;;5051319;28;20237;-82
2022/01/31 02:22:17;;;;;;;23.60;5.60;;;7.80;99.90;;;;;;5050722;28;20630;-83
2022/01/31 02:24:43;;;;;;;25.00;5.17;;;7.80;99.90;;;;;;5050510;28;20202;-82
2022/01/31 02:27:10;;;;;;;23.47;5.90;;;7.80;99.90;;;;;;5052074;28;20201;-82
2022/01/31 02:29:37;;;;;;;21.60;6.00;;;7.80;99.90;;;;;;5051233;28;20213;-84
2022/01/31 02:32:04;;;;;;;19.63;5.13;;;7.80;99.90;;;;;;5051268;28;20233;-81
2022/01/31 02:34:31;;;;;;;28.03;5.50;;;7.80;99.90;;;;;;5051192;28;20524;-82
2022/01/31 02:36:58;;;;;;;22.00;4.67;;;7.90;99.90;;;;;;5051241;28;20205;-82
2022/01/31 02:39:26;;;;;;;25.60;5.23;;;7.80;99.90;;;;;;5051160;28;20405;-81
2022/01/31 02:41:53;;;;;;;23.27;5.57;;;7.80;99.90;;;;;;5051416;28;20213;-82
2022/01/31 02:44:20;;;;;;;36.60;5.57;;;7.80;99.90;;;;;;5051375;28;20206;-82
2022/01/31 02:46:52;;;;;;;23.77;4.57;;;7.80;99.90;;;;;;5062916;28;20208;-87
2022/01/31 02:49:23;;;;;;;20.23;4.20;;;7.70;99.90;;;;;;5063043;28;20214;-82
2022/01/31 02:51:53;;;;;;;18.93;4.97;;;7.70;99.90;;;;;;5051036;28;20687;-83
2022/01/31 02:54:20;;;;;;;25.33;5.17;;;7.80;99.90;;;;;;5051414;28;20598;-85
2022/01/31 02:56:48;;;;;;;20.50;5.53;;;7.70;99.90;;;;;;5051710;28;20202;-82
2022/01/31 02:59:15;;;;;;;22.03;5.37;;;7.70;99.90;;;;;;5050950;28;20214;-84
2022/01/31 03:01:41;;;;;;;25.73;4.90;;;7.70;99.90;;;;;;5048920;28;20206;-81
2022/01/31 03:04:08;;;;;;;24.57;5.37;;;7.80;99.90;;;;;;5050922;28;20209;-84
2022/01/31 03:06:37;;;;;;;28.43;5.23;;;7.80;99.90;;;;;;5050252;28;20757;-80
2022/01/31 03:09:04;;;;;;;19.30;5.07;;;7.80;99.90;;;;;;5049440;28;20232;-84
2022/01/31 03:11:31;;;;;;;13.40;4.47;;;7.80;99.90;;;;;;5049281;28;20226;-81
2022/01/31 03:13:59;;;;;;;20.90;5.17;;;7.80;99.90;;;;;;5048825;28;20205;-81
2022/01/31 03:16:26;;;;;;;26.67;5.43;;;7.80;99.90;;;;;;5062116;28;20239;-80
2022/01/31 03:18:53;;;;;;;34.27;7.10;;;7.80;99.90;;;;;;5068346;28;20197;-78
2022/01/31 03:21:19;;;;;;;21.83;5.20;;;7.80;99.90;;;;;;5069396;28;20205;-81
2022/01/31 03:23:49;;;;;;;22.53;5.37;;;7.80;99.90;;;;;;5067075;28;20207;-81
2022/01/31 03:26:16;;;;;;;22.57;5.63;;;7.80;99.90;;;;;;5068907;28;20248;-81
2022/01/31 03:28:43;;;;;;;25.33;5.73;;;7.80;99.90;;;;;;5067817;28;20614;-82
2022/01/31 03:31:11;;;;;;;28.27;6.03;;;7.80;99.90;;;;;;5062102;28;20226;-81
2022/01/31 03:33:38;;;;;;;28.13;6.17;;;7.80;99.90;;;;;;5047408;28;20230;-83
2022/01/31 03:36:05;;;;;;;23.13;6.90;;;7.80;99.90;;;;;;5047946;28;20918;-81
2022/01/31 03:38:32;;;;;;;22.70;5.70;;;7.80;99.90;;;;;;5049120;28;20202;-81
2022/01/31 03:40:59;;;;;;;23.20;4.87;;;7.80;99.90;;;;;;5056216;28;20205;-84
2022/01/31 03:43:26;;;;;;;22.17;6.07;;;7.80;99.90;;;;;;5069448;28;20204;-83
2022/01/31 03:45:52;;;;;;;23.77;6.60;;;7.80;99.90;;;;;;5057921;28;20216;-81
2022/01/31 03:48:21;;;;;;;21.23;4.90;;;7.80;99.90;;;;;;5046509;28;20217;-82
2022/01/31 03:50:48;;;;;;;21.07;4.30;;;7.80;99.90;;;;;;5047495;28;20214;-82
2022/01/31 03:53:14;;;;;;;20.27;5.03;;;7.80;99.90;;;;;;5048618;28;20218;-81
2022/01/31 03:55:41;;;;;;;28.13;5.90;;;7.80;99.90;;;;;;5048748;28;20540;-80
2022/01/31 03:58:08;;;;;;;24.33;4.97;;;7.90;99.90;;;;;;5048140;28;20280;-82
2022/01/31 04:00:35;;;;;;;30.90;5.83;;;7.80;99.90;;;;;;5047272;28;20198;-83
2022/01/31 04:03:02;;;;;;;22.77;5.23;;;7.80;99.90;;;;;;5048176;28;20661;-81
2022/01/31 04:05:31;;;;;;;24.17;6.00;;;7.90;99.90;;;;;;5048710;28;20908;-82
2022/01/31 04:07:58;;;;;;;23.67;6.73;;;7.80;99.90;;;;;;5047489;28;20268;-83
2022/01/31 04:10:26;;;;;;;25.60;5.60;;;7.80;99.90;;;;;;5048727;28;20577;-83
2022/01/31 04:12:53;;;;;;;23.93;5.30;;;7.80;99.90;;;;;;5047593;28;20217;-81
2022/01/31 04:15:20;;;;;;;22.37;5.57;;;7.80;99.90;;;;;;5047271;28;20205;-81
2022/01/31 04:17:47;;;;;;;30.70;6.37;;;7.80;99.90;;;;;;5048121;28;20209;-86
2022/01/31 04:20:14;;;;;;;34.83;6.77;;;7.80;99.90;;;;;;5048804;28;20238;-81
2022/01/31 04:22:49;;;;;;;22.07;5.17;;;7.80;99.90;;;;;;5047764;28;20229;-81
2022/01/31 04:25:28;;;;;;;21.90;3.47;;;7.80;99.90;;;;;;5049854;28;20288;-80
2022/01/31 04:28:02;;;;;;;16.70;5.10;;;7.60;99.90;;;;;;5050682;28;20501;-89
2022/01/31 04:30:29;;;;;;;24.17;5.07;;;7.40;99.90;;;;;;5061074;28;20298;-84
2022/01/31 04:32:56;;;;;;;19.63;5.27;;;7.20;99.90;;;;;;5070460;28;20210;-83
2022/01/31 04:35:23;;;;;;;20.53;4.70;;;7.10;99.90;;;;;;5065534;28;20201;-84
2022/01/31 04:37:51;;;;;;;15.60;3.23;;;7.10;99.90;;;;;;5050638;28;20202;-87
2022/01/31 04:40:18;;;;;;;19.27;4.77;;;7.00;99.90;;;;;;5050477;28;20594;-83
2022/01/31 04:42:45;;;;;;;25.70;4.70;;;7.00;99.90;;;;;;5049734;28;20217;-83
2022/01/31 04:45:12;;;;;;;32.00;4.60;;;6.90;99.90;;;;;;5050599;28;20202;-84
2022/01/31 04:47:39;;;;;;;38.40;6.00;;;6.90;99.90;;;;;;5053668;28;20462;-86
2022/01/31 04:50:07;;;;;;;24.10;5.67;;;6.90;99.90;;;;;;5070348;28;20665;-82
2022/01/31 04:52:34;;;;;;;19.30;4.20;;;6.90;99.90;;;;;;5055696;28;20238;-86
2022/01/31 04:55:02;;;;;;;41.83;6.67;;;6.90;99.90;;;;;;5050330;28;20213;-87
2022/01/31 04:57:29;;;;;;;24.10;4.50;;;6.90;99.90;;;;;;5050895;28;20217;-85
2022/01/31 04:59:56;;;;;;;21.40;4.50;;;7.00;99.90;;;;;;5049251;28;20208;-86
2022/01/31 05:02:23;;;;;;;25.00;5.17;;;7.00;99.90;;;;;;5050145;28;20210;-84
2022/01/31 05:04:50;;;;;;;26.97;5.67;;;7.00;99.90;;;;;;5049588;28;20271;-87
2022/01/31 05:07:17;;;;;;;22.27;4.60;;;7.00;99.90;;;;;;5051211;28;20575;-89
2022/01/31 05:09:45;;;;;;;27.37;6.10;;;6.90;99.90;;;;;;5060141;28;20882;-84
2022/01/31 05:12:13;;;;;;;27.60;5.70;;;6.90;99.90;;;;;;5069909;28;20217;-84
2022/01/31 05:14:40;;;;;;;33.53;6.10;;;6.90;99.90;;;;;;5055427;28;20217;-85
2022/01/31 05:17:07;;;;;;;38.30;7.57;;;6.80;99.90;;;;;;5050546;28;20198;-85
2022/01/31 05:19:34;;;;;;;28.93;7.33;;;6.90;99.90;;;;;;5049080;28;20241;-83
2022/01/31 05:22:01;;;;;;;24.20;6.53;;;6.90;99.90;;;;;;5046579;28;20198;-86
2022/01/31 05:24:28;;;;;;;31.07;5.40;;;6.90;99.90;;;;;;5050814;28;20206;-82
2022/01/31 05:26:55;;;;;;;31.87;5.80;;;6.90;99.90;;;;;;5050013;28;20196;-86
2022/01/31 05:29:24;;;;;;;21.20;4.17;;;6.90;99.90;;;;;;5047293;28;20202;-85
2022/01/31 05:31:52;;;;;;;20.87;5.50;;;6.80;99.90;;;;;;5049591;28;20229;-83
2022/01/31 05:34:19;;;;;;;30.90;7.50;;;6.70;99.90;;;;;;5050535;28;20237;-86
2022/01/31 05:36:46;;;;;;;34.77;6.03;;;6.70;99.90;;;;;;5060299;28;20241;-87
2022/01/31 05:39:13;;;;;;;25.43;5.40;;;6.70;99.90;;;;;;5070713;28;20213;-85
2022/01/31 05:41:40;;;;;;;34.50;4.80;;;6.70;99.90;;;;;;5067962;28;20772;-86
2022/01/31 05:44:06;;;;;;;40.93;6.77;;;6.70;99.90;;;;;;5050159;28;20206;-88
2022/01/31 05:46:34;;;;;;;19.70;5.40;;;6.70;99.90;;;;;;5061000;28;20243;-83
2022/01/31 05:49:01;;;;;;;32.40;7.97;;;6.70;99.90;;;;;;5069342;28;20207;-85
2022/01/31 05:51:28;;;;;;;22.27;5.13;;;6.70;99.90;;;;;;5071274;28;20228;-85
2022/01/31 05:53:55;;;;;;;23.17;4.40;;;6.70;99.90;;;;;;5058940;28;20205;-83
2022/01/31 05:56:22;;;;;;;22.47;4.67;;;6.70;99.90;;;;;;5066059;28;20212;-85
2022/01/31 05:58:50;;;;;;;24.73;6.10;;;6.70;99.90;;;;;;5072178;28;20208;-84
2022/01/31 06:01:17;;;;;;;24.87;5.63;;;6.70;99.90;;;;;;5072442;28;20544;-82
2022/01/31 06:03:45;;;;;;;31.63;5.87;;;6.70;99.90;;;;;;5072575;28;20201;-82
2022/01/31 06:06:12;;;;;;;33.23;5.90;;;6.70;99.90;;;;;;5061178;28;20485;-84
2022/01/31 06:08:39;;;;;;;24.57;6.80;;;6.70;99.90;;;;;;5052311;28;20198;-85
2022/01/31 06:11:06;;;;;;;30.70;5.10;;;6.80;99.90;;;;;;5052393;28;20210;-83
2022/01/31 06:13:34;;;;;;;28.40;5.50;;;6.80;99.90;;;;;;5052757;28;20205;-86
2022/01/31 06:16:01;;;;;;;27.30;5.57;;;6.80;99.90;;;;;;5051408;28;20602;-83
2022/01/31 06:18:27;;;;;;;27.57;5.40;;;6.80;99.90;;;;;;5050844;28;20206;-82
2022/01/31 06:20:56;;;;;;;25.03;4.87;;;6.80;99.90;;;;;;5051260;28;20256;-82
2022/01/31 06:23:23;;;;;;;28.07;6.80;;;6.80;99.90;;;;;;5051470;28;20207;-84
2022/01/31 06:25:50;;;;;;;27.97;5.83;;;6.80;99.90;;;;;;5051666;28;20209;-85
2022/01/31 06:28:17;;;;;;;27.83;5.53;;;6.80;99.90;;;;;;5052565;28;20202;-86
2022/01/31 06:30:44;;;;;;;30.70;6.47;;;6.80;99.90;;;;;;5052134;28;20197;-86
2022/01/31 06:33:15;;;;;;;27.80;5.30;;;6.80;99.90;;;;;;5052336;28;20233;-86
2022/01/31 06:35:43;;;;;;;32.30;5.90;;;6.80;99.90;;;;;;5052609;28;20299;-85
2022/01/31 06:38:11;;;;;;;26.17;5.27;;;6.80;99.90;;;;;;5053686;28;20214;-85
2022/01/31 06:40:38;;;;;;;29.90;5.60;;;6.90;99.90;;;;;;5053462;28;20205;-86
2022/01/31 06:43:05;;;;;;;30.23;8.23;;;6.90;99.90;;;;;;5050233;28;20205;-83
2022/01/31 06:45:32;;;;;;;26.60;6.37;;;7.00;99.90;;;;;;5052397;28;20201;-83
2022/01/31 06:47:59;;;;;;;32.03;7.00;;;7.00;99.90;;;;;;5066660;28;20217;-83
2022/01/31 06:50:26;;;;;;;31.17;6.30;;;7.00;99.90;;;;;;5049793;28;20214;-83
2022/01/31 06:52:56;;;;;;;36.93;6.50;;;7.00;99.90;;;;;;5049397;28;20280;-85
2022/01/31 06:55:25;;;;;;;37.33;8.00;;;7.10;99.90;;;;;;5049186;28;20323;-82
2022/01/31 06:57:53;;;;;;;31.37;6.77;;;7.10;99.90;;;;;;5051628;28;20304;-87
2022/01/31 07:00:21;;;;;;;40.67;6.87;;;7.10;99.90;;;;;;5051304;28;20508;-88
2022/01/31 07:02:49;;;;;;;28.33;6.83;;;7.10;99.90;;;;;;5050817;28;20793;-84
2022/01/31 07:05:16;;;;;;;32.73;6.43;;;7.10;99.90;;;;;;5050742;28;20199;-82
2022/01/31 07:07:44;;;;;;;31.07;7.20;;;7.10;99.90;;;;;;5050746;28;20202;-84
2022/01/31 07:10:12;;;;;;;35.10;7.60;;;7.20;99.90;;;;;;5051617;28;20210;-84
2022/01/31 07:12:48;;;;;;;32.73;5.83;;;7.20;99.90;;;;;;5051504;28;20214;-83
2022/01/31 07:15:15;;;;;;;39.40;6.83;;;7.20;99.90;;;;;;5051956;28;20204;-83
2022/01/31 07:17:44;;;;;;;38.63;8.60;;;7.20;99.90;;;;;;5051240;28;20205;-84
2022/01/31 07:20:20;;;;;;;31.70;6.77;;;7.20;99.90;;;;;;5052508;28;20910;-87
2022/01/31 07:22:52;;;;;;;18.87;7.60;;;7.20;99.90;;;;;;5068808;28;20201;-83
2022/01/31 07:25:32;;;;;;;28.97;6.40;;;7.10;99.90;;;;;;5072134;28;20204;-84
2022/01/31 07:28:01;;;;;;;37.90;7.37;;;7.10;99.90;;;;;;5070654;28;20672;-86
2022/01/31 07:30:27;;;;;;;29.63;6.17;;;7.10;99.90;;;;;;5052046;28;20609;-88
2022/01/31 07:32:54;;;;;;;31.40;6.70;;;7.10;99.90;;;;;;5051590;28;20249;-86
2022/01/31 07:35:22;;;;;;;31.17;6.73;;;7.00;99.90;;;;;;5052465;28;20201;-85
2022/01/31 07:37:49;;;;;;;36.83;8.10;;;7.00;99.90;;;;;;5051649;28;20198;-86
2022/01/31 07:40:16;;;;;;;34.67;7.37;;;7.10;99.90;;;;;;5063736;28;20284;-87
2022/01/31 07:42:43;;;;;;;31.63;5.63;;;7.10;99.90;;;;;;5072310;28;20193;-89
2022/01/31 07:45:11;;;;;;;35.70;8.33;;;7.10;99.90;;;;;;5071522;28;20597;-89
2022/01/31 07:47:38;;;;;;;34.70;7.17;;;7.10;99.90;;;;;;5071920;28;20213;-84
2022/01/31 07:50:07;;;;;;;34.47;6.50;;;7.10;99.90;;;;;;5071710;28;20236;-86
2022/01/31 07:52:34;;;;;;;31.10;7.40;;;7.10;99.90;;;;;;5070495;28;20228;-86
2022/01/31 07:55:01;;;;;;;41.57;7.57;;;7.10;99.90;;;;;;5070914;28;20227;-86
2022/01/31 07:57:27;;;;;;;53.53;8.63;;;7.10;99.90;;;;;;5069284;28;20205;-88
2022/01/31 07:59:54;;;;;;;40.53;7.40;;;7.10;99.90;;;;;;5054578;28;20213;-85
2022/01/31 08:02:22;;;;;;;42.43;8.70;;;7.00;99.90;;;;;;5051220;28;20205;-88
2022/01/31 08:04:54;;;;;;;34.57;7.43;;;6.90;99.90;;;;;;5066041;28;20209;-89
2022/01/31 08:07:21;;;;;;;33.53;7.50;;;6.90;99.90;;;;;;5071353;28;20265;-88
2022/01/31 08:09:48;;;;;;;42.67;10.23;;;6.90;99.90;;;;;;5070402;28;20259;-88
2022/01/31 08:12:17;;;;;;;39.40;10.43;;;7.00;99.90;;;;;;5044233;28;20228;-85
2022/01/31 08:14:45;;;;;;;42.57;8.60;;;7.00;99.90;;;;;;5049003;28;20257;-84
2022/01/31 08:17:14;;;;;;;37.03;9.20;;;7.10;99.90;;;;;;5050130;28;20225;-85
2022/01/31 08:19:43;;;;;;;46.03;9.13;;;7.10;99.90;;;;;;5049058;28;20260;-81
2022/01/31 08:22:10;;;;;;;47.97;11.07;;;7.20;99.90;;;;;;5048677;28;20209;-87
2022/01/31 08:24:36;;;;;;;41.23;8.70;;;7.20;99.90;;;;;;5048947;28;20213;-84
2022/01/31 08:27:04;;;;;;;33.90;8.67;;;7.20;99.90;;;;;;5017985;28;20323;-83
2022/01/31 08:29:34;;;;;;;37.97;7.83;;;7.20;99.90;;;;;;5048376;28;20194;-81
2022/01/31 08:32:06;;;;;;;46.57;8.30;;;7.20;99.90;;;;;;5063837;28;20220;-82
2022/01/31 08:37:15;;;;;;;40.83;7.80;;;7.20;99.90;;;;;;5049417;28;20193;-85
2022/01/31 08:39:42;;;;;;;43.37;9.37;;;7.20;99.90;;;;;;5049863;28;20621;-81
2022/01/31 08:42:10;;;;;;;48.20;9.13;;;7.10;99.90;;;;;;5048997;28;20202;-82
2022/01/31 08:44:37;;;;;;;36.17;8.30;;;7.00;99.90;;;;;;5049770;28;20198;-81
2022/01/31 08:47:08;;;;;;;37.60;9.03;;;6.90;99.90;;;;;;5048261;28;20206;-85
2022/01/31 08:49:36;;;;;;;42.97;8.27;;;6.90;99.90;;;;;;5048637;28;20204;-81
2022/01/31 08:52:03;;;;;;;51.40;9.67;;;6.80;99.90;;;;;;5049064;28;20209;-81
2022/01/31 08:54:31;;;;;;;43.53;9.83;;;6.80;99.90;;;;;;5048676;28;20238;-86
2022/01/31 08:56:58;;;;;;;42.23;9.30;;;6.80;99.90;;;;;;5048828;28;20209;-83
2022/01/31 08:59:26;;;;;;;38.23;8.87;;;6.80;99.90;;;;;;5049487;28;20194;-80
2022/01/31 09:02:03;;;;;;;40.60;8.33;;;6.90;99.90;;;;;;5047870;28;20216;-81
2022/01/31 09:04:35;;;;;;;48.70;9.87;;;6.90;99.90;;;;;;5048504;28;20236;-85
2022/01/31 09:07:02;;;;;;;56.60;9.40;;;6.90;99.90;;;;;;5049167;28;20891;-83
2022/01/31 09:09:31;;;;;;;44.37;11.33;;;7.00;99.90;;;;;;5048500;28;20214;-82
2022/01/31 09:11:59;;;;;;;49.90;10.47;;;6.90;99.90;;;;;;5046505;28;20271;-81
2022/01/31 09:14:26;;;;;;;55.47;10.27;;;6.90;99.90;;;;;;5047037;28;20209;-84
2022/01/31 09:16:53;;;;;;;51.60;10.67;;;7.00;99.90;;;;;;5046375;28;20859;-83
2022/01/31 09:19:21;;;;;;;48.07;11.10;;;7.00;99.90;;;;;;5048316;28;20245;-83
2022/01/31 09:21:48;;;;;;;51.10;10.17;;;7.00;99.90;;;;;;5048442;28;20205;-82
2022/01/31 09:24:15;;;;;;;59.63;11.77;;;7.00;99.90;;;;;;5047144;28;20476;-81
2022/01/31 09:26:43;;;;;;;48.63;9.97;;;7.00;99.90;;;;;;5055916;28;20205;-79
2022/01/31 09:29:12;;;;;;;49.13;10.57;;;7.10;99.90;;;;;;5071027;28;20193;-84
2022/01/31 09:31:38;;;;;;;50.03;9.67;;;7.10;99.90;;;;;;5053868;28;20214;-81
2022/01/31 09:34:06;;;;;;;46.23;9.73;;;7.00;99.90;;;;;;5052216;28;20559;-78
2022/01/31 09:36:33;;;;;;;59.03;11.17;;;7.00;99.90;;;;;;5051733;28;20518;-84
2022/01/31 09:39:00;;;;;;;38.53;9.00;;;7.00;99.90;;;;;;5050204;28;20214;-79
2022/01/31 09:41:29;;;;;;;36.67;8.23;;;7.10;99.90;;;;;;5050810;28;20194;-82
2022/01/31 09:44:12;;;;;;;42.97;9.73;;;7.10;99.90;;;;;;5050081;28;20194;-79
2022/01/31 09:49:15;;;;;;;43.77;10.27;;;7.10;99.90;;;;;;5070703;28;20189;-82
2022/01/31 09:51:43;;;;;;;51.23;9.57;;;7.10;99.90;;;;;;5070027;28;20201;-82
2022/01/31 09:54:11;;;;;;;41.73;8.03;;;7.10;99.90;;;;;;5070993;28;20916;-83
2022/01/31 09:56:40;;;;;;;37.87;9.37;;;7.10;99.90;;;;;;5055617;28;20602;-83
2022/01/31 09:59:10;;;;;;;46.00;8.90;;;7.10;99.90;;;;;;5048518;28;20205;-82
2022/01/31 10:01:42;;;;;;;40.00;7.93;;;7.10;99.90;;;;;;5051701;28;20210;-85
2022/01/31 10:04:14;;;;;;;43.67;9.60;;;7.10;99.90;;;;;;5051906;28;20198;-82
2022/01/31 10:06:43;;;;;;;46.47;9.70;;;7.10;99.90;;;;;;5051625;28;20190;-81
2022/01/31 10:09:13;;;;;;;45.23;10.20;;;7.10;99.90;;;;;;5052386;28;20256;-83
2022/01/31 10:11:46;;;;;;;43.73;10.00;;;7.10;99.90;;;;;;5051302;28;20202;-83
2022/01/31 10:17:11;;;;;;;40.77;7.93;;;7.10;99.90;;;;;;5051143;28;20352;-85
2022/01/31 10:19:44;;;;;;;44.97;9.50;;;7.00;99.90;;;;;;5050904;28;20246;-82
2022/01/31 10:22:13;;;;;;;52.17;9.43;;;7.10;99.90;;;;;;5049945;28;20229;-79
2022/01/31 10:24:43;;;;;;;56.60;10.83;;;7.10;99.90;;;;;;5051258;28;20294;-82
2022/01/31 10:27:13;;;;;;;50.43;10.67;;;7.10;99.90;;;;;;5049409;28;20230;-82
2022/01/31 10:29:42;;;;;;;58.40;11.03;;;7.00;99.90;;;;;;5051264;28;20194;-85
2022/01/31 10:32:11;;;;;;;62.50;12.40;;;7.00;99.90;;;;;;5051180;28;20198;-83
2022/01/31 10:34:40;;;;;;;51.90;11.27;;;7.00;99.90;;;;;;5052165;28;20226;-87
2022/01/31 10:37:11;;;;;;;42.93;8.03;;;7.00;99.90;;;;;;5070905;28;20212;-83
2022/01/31 10:45:38;;;;;;;49.37;10.67;;;7.00;99.90;;;;;;5055459;28;20874;-82
2022/01/31 10:51:27;;;;;;;45.73;9.80;;;7.00;99.90;;;;;;5050799;28;20209;-85
2022/01/31 10:53:59;;;;;;;51.50;9.00;;;7.00;99.90;;;;;;5050893;28;20596;-83
2022/01/31 10:56:36;;;;;;;56.00;11.43;;;7.00;99.90;;;;;;5060435;28;20213;-83
2022/01/31 10:59:05;;;;;;;48.70;10.63;;;7.00;99.90;;;;;;5056653;28;20217;-83
2022/01/31 11:01:34;;;;;;;46.50;9.63;;;7.00;99.90;;;;;;5049881;28;20641;-82
2022/01/31 11:04:05;;;;;;;62.73;11.13;;;7.00;99.90;;;;;;5049396;28;20210;-81
2022/01/31 11:06:32;;;;;;;48.87;10.40;;;7.00;99.90;;;;;;5067723;28;20593;-81
2022/01/31 11:09:07;;;;;;;43.30;10.17;;;7.00;99.90;;;;;;5049089;28;20202;-78
2022/01/31 11:11:36;;;;;;;42.83;12.50;;;7.00;99.90;;;;;;5048758;28;20231;-79
2022/01/31 11:14:03;;;;;;;50.03;10.60;;;6.90;99.90;;;;;;5048499;28;20911;-81
2022/01/31 11:16:31;;;;;;;57.30;11.00;;;7.00;99.90;;;;;;5048592;28;20620;-83
2022/01/31 11:19:03;;;;;;;54.60;10.23;;;6.90;99.90;;;;;;5048266;28;20198;-83
2022/01/31 11:21:33;;;;;;;47.50;11.93;;;6.90;99.90;;;;;;5049489;28;20321;-83
2022/01/31 11:24:03;;;;;;;48.40;11.20;;;6.90;99.90;;;;;;5047984;28;20241;-83
2022/01/31 11:26:38;;;;;;;61.73;11.93;;;7.00;99.90;;;;;;5048578;28;20210;-83
2022/01/31 11:29:07;;;;;;;59.70;13.17;;;7.00;99.90;;;;;;5047741;28;20594;-84
2022/01/31 11:31:36;;;;;;;57.90;13.00;;;7.00;99.90;;;;;;5051684;28;20213;-82
2022/01/31 11:34:05;;;;;;;60.10;11.10;;;7.00;99.90;;;;;;5067864;28;20229;-84
2022/01/31 11:36:34;;;;;;;60.90;12.87;;;7.00;99.90;;;;;;5069429;28;20201;-82
2022/01/31 11:39:02;;;;;;;73.57;15.70;;;7.00;99.90;;;;;;5061437;28;20653;-87
2022/01/31 11:41:29;;;;;;;67.67;13.20;;;7.00;99.90;;;;;;5046910;28;20232;-81
2022/01/31 11:44:02;;;;;;;62.53;13.17;;;7.00;99.90;;;;;;5047417;28;20213;-81
2022/01/31 11:46:29;;;;;;;71.67;14.73;;;7.10;99.90;;;;;;5057875;28;20209;-81
2022/01/31 11:48:57;;;;;;;60.93;11.33;;;7.10;99.90;;;;;;5054675;28;20225;-80
2022/01/31 11:51:25;;;;;;;53.03;11.80;;;7.10;99.90;;;;;;5047896;28;20241;-83
2022/01/31 11:54:07;;;;;;;53.07;12.00;;;7.10;99.90;;;;;;5048184;28;20232;-85
2022/01/31 11:56:45;;;;;;;57.23;11.83;;;7.10;99.90;;;;;;5046854;28;20221;-81
2022/01/31 11:59:14;;;;;;;58.00;12.43;;;7.10;99.90;;;;;;5046612;28;20284;-81
2022/01/31 12:01:43;;;;;;;54.10;11.33;;;7.10;99.90;;;;;;5047496;28;20237;-81
2022/01/31 12:04:13;;;;;;;47.80;10.67;;;7.10;99.90;;;;;;5052472;28;20213;-81
2022/01/31 12:06:41;;;;;;;55.77;11.03;;;7.10;99.90;;;;;;5047058;28;20221;-79
2022/01/31 12:09:16;;;;;;;62.03;13.57;;;7.20;99.90;;;;;;5060591;28;20209;-87
2022/01/31 12:12:02;;;;;;;63.57;14.03;;;7.30;99.90;;;;;;5060011;28;20652;-80
2022/01/31 12:14:42;;;;;;;51.20;12.83;;;7.30;99.90;;;;;;5059251;28;20580;-81
2022/01/31 12:17:59;;;;;;;54.53;11.30;;;7.30;99.90;;;;;;5068406;28;20213;-84
2022/01/31 12:23:39;;;;;;;53.53;12.10;;;7.40;99.90;;;;;;5046060;28;20232;-80
2022/01/31 12:26:27;;;;;;;61.00;11.37;;;7.40;99.90;;;;;;5048481;28;20210;-82
2022/01/31 12:28:56;;;;;;;49.37;11.50;;;7.40;99.90;;;;;;5047322;28;20240;-85
2022/01/31 12:31:24;;;;;;;59.43;10.97;;;7.40;99.90;;;;;;5047955;28;20942;-85
2022/01/31 12:33:51;;;;;;;62.57;11.80;;;7.40;99.90;;;;;;5047175;28;20284;-83
2022/01/31 12:36:41;;;;;;;53.73;11.07;;;7.40;99.90;;;;;;5047348;28;20210;-82
2022/01/31 12:39:45;;;;;;;38.73;9.40;;;7.40;99.90;;;;;;5048570;28;20217;-81
2022/01/31 12:43:10;;;;;;;63.97;13.27;;;7.50;99.90;;;;;;5047744;28;20219;-80
2022/01/31 12:46:03;;;;;;;40.73;8.03;;;7.50;99.90;;;;;;5048186;28;20210;-84
2022/01/31 12:48:30;;;;;;;37.73;9.90;;;7.40;99.90;;;;;;5034952;28;20218;-84
2022/01/31 12:51:03;;;;;;;42.37;9.60;;;7.30;99.90;;;;;;5048414;28;20210;-86
2022/01/31 12:53:50;;;;;;;51.27;12.40;;;7.30;99.90;;;;;;5048854;28;20644;-82
2022/01/31 12:56:30;;;;;;;39.47;11.87;;;7.40;99.90;;;;;;5046024;28;20218;-86
2022/01/31 12:59:05;;;;;;;45.90;9.90;;;7.40;99.90;;;;;;5048222;28;20284;-86
2022/01/31 13:01:35;;;;;;;53.47;10.97;;;7.40;99.90;;;;;;5048377;28;20212;-79
2022/01/31 13:04:05;;;;;;;50.50;10.30;;;7.40;99.90;;;;;;5045821;28;20228;-93
2022/01/31 13:06:34;;;;;;;50.13;11.27;;;7.40;99.90;;;;;;5047355;28;20719;-83
2022/01/31 13:09:06;;;;;;;59.60;12.10;;;7.40;99.90;;;;;;5048560;28;20911;-84
2022/01/31 13:11:32;;;;;;;59.93;11.90;;;7.40;99.90;;;;;;5048679;28;20210;-82
2022/01/31 13:14:10;;;;;;;55.70;11.13;;;7.40;99.90;;;;;;5047478;28;20228;-81
2022/01/31 13:16:43;;;;;;;61.77;11.17;;;7.40;99.90;;;;;;5046238;28;20221;-87